createdAt,value
2022-11-05T00:00:55.208Z,211.70
2022-11-05T00:01:55.259Z,392.90
2022-11-05T00:02:55.169Z,236.00
2022-11-05T00:03:55.207Z,403.90
2022-11-05T00:04:55.168Z,201.60
2022-11-05T00:05:55.154Z,229.10
2022-11-05T00:06:55.157Z,398.60
2022-11-05T00:07:55.125Z,176.90
2022-11-05T00:08:55.101Z,373.80
2022-11-05T00:09:55.105Z,286.50
2022-11-05T00:10:55.093Z,118.90
2022-11-05T00:11:55.098Z,399.90
2022-11-05T00:12:55.059Z,415.50
2022-11-05T00:13:55.053Z,231.80
2022-11-05T00:14:55.039Z,338.70
2022-11-05T00:15:55.019Z,272.90
2022-11-05T00:16:55.031Z,383.60
2022-11-05T00:17:55.015Z,133.00
2022-11-05T00:18:54.978Z,395.10
2022-11-05T00:19:54.971Z,205.80
2022-11-05T00:20:54.966Z,396.90
2022-11-05T00:21:54.998Z,96.70
2022-11-05T00:22:54.941Z,397.20
2022-11-05T00:23:54.940Z,126.10
2022-11-05T00:24:54.935Z,172.30
2022-11-05T00:25:54.923Z,409.20
2022-11-05T00:26:54.934Z,513.70
2022-11-05T00:27:54.894Z,222.40
2022-11-05T00:28:54.903Z,394.90
2022-11-05T00:29:54.882Z,216.70
2022-11-05T00:30:54.845Z,392.90
2022-11-05T00:31:54.879Z,101.20
2022-11-05T00:32:54.831Z,398.00
2022-11-05T00:33:54.827Z,99.50
2022-11-05T00:34:54.814Z,395.80
2022-11-05T00:35:54.793Z,137.60
2022-11-05T00:36:54.816Z,399.60
2022-11-05T00:37:54.780Z,151.10
2022-11-05T00:38:54.784Z,160.80
2022-11-05T00:39:54.757Z,396.90
2022-11-05T00:40:54.754Z,107.40
2022-11-05T00:41:54.776Z,392.90
2022-11-05T00:42:54.716Z,263.60
2022-11-05T00:43:54.721Z,415.90
2022-11-05T00:44:54.684Z,331.70
2022-11-05T00:45:54.687Z,273.00
2022-11-05T00:46:59.628Z,118.30
2022-11-05T00:47:55.694Z,387.20
2022-11-05T00:48:54.641Z,109.20
2022-11-05T00:49:54.635Z,398.20
2022-11-05T00:50:54.646Z,125.70
2022-11-05T00:51:54.609Z,404.60
2022-11-05T00:52:54.618Z,159.30
2022-11-05T00:53:54.579Z,362.70
2022-11-05T00:54:54.560Z,421.90
2022-11-05T00:55:54.597Z,99.70
2022-11-05T00:56:54.555Z,401.70
2022-11-05T00:57:54.571Z,392.70
2022-11-05T00:58:54.533Z,258.20
2022-11-05T00:59:54.532Z,174.60
2022-11-05T01:00:54.506Z,395.30
2022-11-05T01:01:54.726Z,375.40
2022-11-05T01:02:54.644Z,293.70
2022-11-05T01:03:54.476Z,150.00
2022-11-05T01:04:54.469Z,405.10
2022-11-05T01:05:54.457Z,321.80
2022-11-05T01:06:54.431Z,315.60
2022-11-05T01:07:54.461Z,232.80
2022-11-05T01:08:54.420Z,305.90
2022-11-05T01:09:54.416Z,346.40
2022-11-05T01:10:54.396Z,136.20
2022-11-05T01:11:54.395Z,279.40
2022-11-05T01:12:54.427Z,390.00
2022-11-05T01:13:54.343Z,411.90
2022-11-05T01:14:54.349Z,103.90
2022-11-05T01:15:54.331Z,312.60
2022-11-05T01:16:54.361Z,300.00
2022-11-05T01:17:54.323Z,152.40
2022-11-05T01:18:54.297Z,329.80
2022-11-05T01:19:54.293Z,349.90
2022-11-05T01:20:54.281Z,93.20
2022-11-05T01:21:54.290Z,334.10
2022-11-05T01:22:54.250Z,357.30
2022-11-05T01:23:54.255Z,106.80
2022-11-05T01:24:54.233Z,329.60
2022-11-05T01:25:54.208Z,314.20
2022-11-05T01:26:54.235Z,175.90
2022-11-05T01:27:54.193Z,401.60
2022-11-05T01:28:54.263Z,192.90
2022-11-05T01:29:54.159Z,185.90
2022-11-05T01:30:54.147Z,392.70
2022-11-05T01:31:54.162Z,258.00
2022-11-05T01:32:54.127Z,124.70
2022-11-05T01:33:54.129Z,408.10
2022-11-05T01:34:54.114Z,225.70
2022-11-05T01:35:54.109Z,188.70
2022-11-05T01:36:54.135Z,360.70
2022-11-05T01:37:54.077Z,333.60
2022-11-05T01:38:54.058Z,374.90
2022-11-05T01:39:54.041Z,310.50
2022-11-05T01:40:54.056Z,194.80
2022-11-05T01:41:54.075Z,407.00
2022-11-05T01:42:54.055Z,121.80
2022-11-05T01:43:54.002Z,124.00
2022-11-05T01:44:53.987Z,413.10
2022-11-05T01:45:53.989Z,122.90
2022-11-05T01:46:54.023Z,400.50
2022-11-05T01:47:53.969Z,227.50
2022-11-05T01:48:58.572Z,342.60
2022-11-05T01:49:54.949Z,101.60
2022-11-05T01:50:53.938Z,407.80
2022-11-05T01:51:53.947Z,105.20
2022-11-05T01:52:53.920Z,405.60
2022-11-05T01:53:53.886Z,149.50
2022-11-05T01:54:53.903Z,398.30
2022-11-05T01:55:53.865Z,421.90
2022-11-05T01:56:53.898Z,273.70
2022-11-05T01:57:53.847Z,314.70
2022-11-05T01:58:53.843Z,281.70
2022-11-05T01:59:53.824Z,121.50
2022-11-05T02:00:53.819Z,366.70
2022-11-05T02:01:53.951Z,335.10
2022-11-05T02:02:53.965Z,209.50
2022-11-05T02:03:53.767Z,249.90
2022-11-05T02:04:53.786Z,246.60
2022-11-05T02:05:53.740Z,387.90
2022-11-05T02:06:53.766Z,475.00
2022-11-05T02:07:53.714Z,170.30
2022-11-05T02:08:53.707Z,409.90
2022-11-05T02:09:53.707Z,138.80
2022-11-05T02:10:53.697Z,401.50
2022-11-05T02:11:53.711Z,209.90
2022-11-05T02:12:53.678Z,385.20
2022-11-05T02:13:53.644Z,139.40
2022-11-05T02:14:53.656Z,411.00
2022-11-05T02:15:53.627Z,125.70
2022-11-05T02:16:53.658Z,386.10
2022-11-05T02:17:53.610Z,123.90
2022-11-05T02:18:53.608Z,411.70
2022-11-05T02:19:53.587Z,452.00
2022-11-05T02:20:53.598Z,119.80
2022-11-05T02:21:53.610Z,225.90
2022-11-05T02:22:53.552Z,354.80
2022-11-05T02:23:53.547Z,156.60
2022-11-05T02:24:53.532Z,126.80
2022-11-05T02:25:53.531Z,414.60
2022-11-05T02:26:53.573Z,115.20
2022-11-05T02:27:53.549Z,116.00
2022-11-05T02:28:53.505Z,406.90
2022-11-05T02:29:53.484Z,221.30
2022-11-05T02:30:53.469Z,136.10
2022-11-05T02:31:53.438Z,416.20
2022-11-05T02:32:53.470Z,354.20
2022-11-05T02:33:53.436Z,269.50
2022-11-05T02:34:53.434Z,142.60
2022-11-05T02:35:53.411Z,338.70
2022-11-05T02:36:53.410Z,253.60
2022-11-05T02:37:53.415Z,115.70
2022-11-05T02:38:53.381Z,273.90
2022-11-05T02:39:53.375Z,334.40
2022-11-05T02:40:53.362Z,363.20
2022-11-05T02:41:53.352Z,344.60
2022-11-05T02:42:53.354Z,205.40
2022-11-05T02:43:53.309Z,420.40
2022-11-05T02:44:53.290Z,193.60
2022-11-05T02:45:53.284Z,433.60
2022-11-05T02:46:53.308Z,156.60
2022-11-05T02:47:53.314Z,410.90
2022-11-05T02:48:53.279Z,222.90
2022-11-05T02:49:53.244Z,418.40
2022-11-05T02:50:53.249Z,136.90
2022-11-05T02:51:53.233Z,339.50
2022-11-05T02:52:53.252Z,242.60
2022-11-05T02:53:53.203Z,411.90
2022-11-05T02:54:53.188Z,166.00
2022-11-05T02:55:53.184Z,414.30
2022-11-05T02:56:53.194Z,236.50
2022-11-05T02:57:53.182Z,268.20
2022-11-05T02:58:53.156Z,131.00
2022-11-05T02:59:53.164Z,393.00
2022-11-05T03:00:53.141Z,128.60
2022-11-05T03:01:53.206Z,351.30
2022-11-05T03:02:53.186Z,307.60
2022-11-05T03:03:53.087Z,416.20
2022-11-05T03:04:53.090Z,121.40
2022-11-05T03:05:53.061Z,396.50
2022-11-05T03:06:53.099Z,181.50
2022-11-05T03:07:53.079Z,151.70
2022-11-05T03:08:53.036Z,394.10
2022-11-05T03:09:53.011Z,467.40
2022-11-05T03:10:53.019Z,191.50
2022-11-05T03:11:52.995Z,414.10
2022-11-05T03:12:53.038Z,142.30
2022-11-05T03:13:52.971Z,181.80
2022-11-05T03:14:52.972Z,388.90
2022-11-05T03:15:52.947Z,141.10
2022-11-05T03:16:52.936Z,178.40
2022-11-05T03:17:52.960Z,400.20
2022-11-05T03:18:52.925Z,123.60
2022-11-05T03:19:52.891Z,403.60
2022-11-05T03:20:52.886Z,256.80
2022-11-05T03:21:52.867Z,288.70
2022-11-05T03:22:52.901Z,372.60
2022-11-05T03:23:52.856Z,121.40
2022-11-05T03:24:52.850Z,410.50
2022-11-05T03:25:52.842Z,115.00
2022-11-05T03:26:52.825Z,391.90
2022-11-05T03:27:52.847Z,387.30
2022-11-05T03:28:52.802Z,323.20
2022-11-05T03:29:52.782Z,113.20
2022-11-05T03:30:52.794Z,395.20
2022-11-05T03:31:52.753Z,141.70
2022-11-05T03:32:52.795Z,386.50
2022-11-05T03:33:52.734Z,223.10
2022-11-05T03:34:52.755Z,142.00
2022-11-05T03:35:52.729Z,363.30
2022-11-05T03:36:52.720Z,326.30
2022-11-05T03:37:52.737Z,211.70
2022-11-05T03:38:52.698Z,172.70
2022-11-05T03:39:52.678Z,399.30
2022-11-05T03:40:52.661Z,487.40
2022-11-05T03:41:52.641Z,215.20
2022-11-05T03:42:52.672Z,422.60
2022-11-05T03:43:52.621Z,226.80
2022-11-05T03:44:52.622Z,304.20
2022-11-05T03:45:52.606Z,224.90
2022-11-05T03:46:52.591Z,370.60
2022-11-05T03:47:52.618Z,203.00
2022-11-05T03:48:52.628Z,267.40
2022-11-05T03:49:52.555Z,382.90
2022-11-05T03:50:52.555Z,478.20
2022-11-05T03:51:52.536Z,299.20
2022-11-05T03:52:52.609Z,291.50
2022-11-05T03:53:52.514Z,135.00
2022-11-05T03:54:52.512Z,416.80
2022-11-05T03:55:52.491Z,185.80
2022-11-05T03:56:52.487Z,366.50
2022-11-05T03:57:52.509Z,160.60
2022-11-05T03:58:57.678Z,415.80
2022-11-05T03:59:53.446Z,220.30
2022-11-05T04:00:52.427Z,328.30
2022-11-05T04:01:52.488Z,157.20
2022-11-05T04:02:52.558Z,376.10
2022-11-05T04:03:52.394Z,348.10
2022-11-05T04:04:52.390Z,330.80
2022-11-05T04:05:52.372Z,499.20
2022-11-05T04:06:52.360Z,171.30
2022-11-05T04:07:52.380Z,401.60
2022-11-05T04:08:52.342Z,133.00
2022-11-05T04:09:52.323Z,379.80
2022-11-05T04:10:52.321Z,155.60
2022-11-05T04:11:52.305Z,393.10
2022-11-05T04:12:52.327Z,175.10
2022-11-05T04:13:52.282Z,403.10
2022-11-05T04:14:52.270Z,282.30
2022-11-05T04:15:52.260Z,497.20
2022-11-05T04:16:52.251Z,231.20
2022-11-05T04:17:52.272Z,213.90
2022-11-05T04:18:52.326Z,388.00
2022-11-05T04:19:52.207Z,288.30
2022-11-05T04:20:52.205Z,489.80
2022-11-05T04:21:52.179Z,191.10
2022-11-05T04:22:52.209Z,366.40
2022-11-05T04:23:52.169Z,227.40
2022-11-05T04:24:52.156Z,408.30
2022-11-05T04:25:52.152Z,298.10
2022-11-05T04:26:52.139Z,219.30
2022-11-05T04:27:52.150Z,489.40
2022-11-05T04:28:52.117Z,156.80
2022-11-05T04:29:52.098Z,330.30
2022-11-05T04:30:52.090Z,357.70
2022-11-05T04:31:52.070Z,542.60
2022-11-05T04:32:52.106Z,231.40
2022-11-05T04:33:52.048Z,353.50
2022-11-05T04:34:52.043Z,525.20
2022-11-05T04:35:52.033Z,213.00
2022-11-05T04:36:52.033Z,317.80
2022-11-05T04:37:52.030Z,353.10
2022-11-05T04:38:52.038Z,320.50
2022-11-05T04:39:51.966Z,318.60
2022-11-05T04:40:51.966Z,119.30
2022-11-05T04:41:51.946Z,424.00
2022-11-05T04:42:51.942Z,122.20
2022-11-05T04:43:51.969Z,405.90
2022-11-05T04:44:51.925Z,184.20
2022-11-05T04:45:51.905Z,419.80
2022-11-05T04:46:51.907Z,246.30
2022-11-05T04:47:51.891Z,465.10
2022-11-05T04:48:51.920Z,281.30
2022-11-05T04:49:51.870Z,486.50
2022-11-05T04:50:51.866Z,172.40
2022-11-05T04:51:51.848Z,420.60
2022-11-05T04:52:51.834Z,152.70
2022-11-05T04:53:51.851Z,220.70
2022-11-05T04:54:51.816Z,415.50
2022-11-05T04:55:51.818Z,159.90
2022-11-05T04:56:51.798Z,415.60
2022-11-05T04:57:51.765Z,246.30
2022-11-05T04:58:51.822Z,268.70
2022-11-05T04:59:51.779Z,314.90
2022-11-05T05:00:51.793Z,489.50
2022-11-05T05:01:51.752Z,116.30
2022-11-05T05:02:51.736Z,399.30
2022-11-05T05:03:51.763Z,148.40
2022-11-05T05:04:51.710Z,193.60
2022-11-05T05:05:53.837Z,392.00
2022-11-05T05:06:51.671Z,159.20
2022-11-05T05:07:51.659Z,121.30
2022-11-05T05:08:51.687Z,442.50
2022-11-05T05:09:51.657Z,434.70
2022-11-05T05:10:51.666Z,186.70
2022-11-05T05:11:51.629Z,433.70
2022-11-05T05:12:51.615Z,130.90
2022-11-05T05:13:51.640Z,345.00
2022-11-05T05:14:51.579Z,286.50
2022-11-05T05:15:51.595Z,506.50
2022-11-05T05:16:51.575Z,177.50
2022-11-05T05:17:51.575Z,174.80
2022-11-05T05:18:51.571Z,398.30
2022-11-05T05:19:51.535Z,150.80
2022-11-05T05:20:51.533Z,463.20
2022-11-05T05:21:51.502Z,150.60
2022-11-05T05:22:51.521Z,268.10
2022-11-05T05:23:51.561Z,314.30
2022-11-05T05:24:52.913Z,291.90
2022-11-05T05:25:51.495Z,287.70
2022-11-05T05:26:51.473Z,357.90
2022-11-05T05:27:51.457Z,186.90
2022-11-05T05:28:51.492Z,415.30
2022-11-05T05:29:51.445Z,247.00
2022-11-05T05:30:56.146Z,348.40
2022-11-05T05:31:52.406Z,463.40
2022-11-05T05:32:51.390Z,228.30
2022-11-05T05:33:51.433Z,302.90
2022-11-05T05:34:51.377Z,340.80
2022-11-05T05:35:51.363Z,144.60
2022-11-05T05:36:51.349Z,407.30
2022-11-05T05:37:51.337Z,251.70
2022-11-05T05:38:51.367Z,343.30
2022-11-05T05:39:51.321Z,512.50
2022-11-05T05:40:51.289Z,200.60
2022-11-05T05:41:51.302Z,191.20
2022-11-05T05:42:51.254Z,382.10
2022-11-05T05:43:51.285Z,253.80
2022-11-05T05:44:51.238Z,478.40
2022-11-05T05:45:51.230Z,149.70
2022-11-05T05:46:51.236Z,378.80
2022-11-05T05:47:51.225Z,227.10
2022-11-05T05:48:51.229Z,326.70
2022-11-05T05:49:51.194Z,511.70
2022-11-05T05:50:51.193Z,487.00
2022-11-05T05:51:51.183Z,133.80
2022-11-05T05:52:51.158Z,349.10
2022-11-05T05:53:51.190Z,485.30
2022-11-05T05:54:51.125Z,429.30
2022-11-05T05:55:51.123Z,175.90
2022-11-05T05:56:51.100Z,375.20
2022-11-05T05:57:51.093Z,264.20
2022-11-05T05:58:51.120Z,295.40
2022-11-05T05:59:51.077Z,501.70
2022-11-05T06:00:51.058Z,138.10
2022-11-05T06:01:51.144Z,357.50
2022-11-05T06:02:51.081Z,203.20
2022-11-05T06:03:51.061Z,432.00
2022-11-05T06:04:51.013Z,168.40
2022-11-05T06:05:51.022Z,268.50
2022-11-05T06:06:50.993Z,306.40
2022-11-05T06:07:50.988Z,137.60
2022-11-05T06:08:51.002Z,354.80
2022-11-05T06:09:50.983Z,366.80
2022-11-05T06:10:50.995Z,423.70
2022-11-05T06:11:50.935Z,80.60
2022-11-05T06:12:50.924Z,255.10
2022-11-05T06:13:50.943Z,211.00
2022-11-05T06:14:50.902Z,393.90
2022-11-05T06:15:50.892Z,59.90
2022-11-05T06:16:50.871Z,268.20
2022-11-05T06:17:50.868Z,195.60
2022-11-05T06:18:50.884Z,250.00
2022-11-05T06:19:50.845Z,161.40
2022-11-05T06:20:50.819Z,106.50
2022-11-05T06:21:50.818Z,308.80
2022-11-05T06:22:50.804Z,410.80
2022-11-05T06:23:50.818Z,70.20
2022-11-05T06:24:50.784Z,354.90
2022-11-05T06:25:50.771Z,78.70
2022-11-05T06:26:50.758Z,291.50
2022-11-05T06:27:50.756Z,136.50
2022-11-05T06:28:50.768Z,246.90
2022-11-05T06:29:50.733Z,385.40
2022-11-05T06:30:50.724Z,61.80
2022-11-05T06:31:50.711Z,296.40
2022-11-05T06:32:50.692Z,366.60
2022-11-05T06:33:50.720Z,96.10
2022-11-05T06:34:50.674Z,176.60
2022-11-05T06:35:50.684Z,346.00
2022-11-05T06:36:50.643Z,328.80
2022-11-05T06:37:50.647Z,66.30
2022-11-05T06:38:50.626Z,317.80
2022-11-05T06:39:50.660Z,142.60
2022-11-05T06:40:50.619Z,362.00
2022-11-05T06:42:16.677Z,63.20
2022-11-05T06:42:51.579Z,186.00
2022-11-05T06:43:50.587Z,215.30
2022-11-05T06:44:50.605Z,60.70
2022-11-05T06:45:50.557Z,321.80
2022-11-05T06:46:50.534Z,180.50
2022-11-05T06:47:50.521Z,311.90
2022-11-05T06:48:50.502Z,67.70
2022-11-05T06:49:50.534Z,198.20
2022-11-05T06:50:50.479Z,259.30
2022-11-05T06:51:50.483Z,66.00
2022-11-05T06:52:50.468Z,276.40
2022-11-05T06:53:50.448Z,67.40
2022-11-05T06:54:50.493Z,224.50
2022-11-05T06:55:50.444Z,63.80
2022-11-05T06:56:50.413Z,118.60
2022-11-05T06:57:50.403Z,181.90
2022-11-05T06:58:50.396Z,78.10
2022-11-05T06:59:50.407Z,117.90
2022-11-05T07:00:50.428Z,250.50
2022-11-05T07:01:50.375Z,112.10
2022-11-05T07:02:50.355Z,132.20
2022-11-05T07:03:50.337Z,233.40
2022-11-05T07:04:50.356Z,206.10
2022-11-05T07:05:50.330Z,135.40
2022-11-05T07:06:50.303Z,121.70
2022-11-05T07:07:50.293Z,223.40
2022-11-05T07:08:50.284Z,209.50
2022-11-05T07:09:50.306Z,141.30
2022-11-05T07:10:50.258Z,112.40
2022-11-05T07:11:50.261Z,203.00
2022-11-05T07:12:50.228Z,204.20
2022-11-05T07:13:50.231Z,142.10
2022-11-05T07:14:50.248Z,84.90
2022-11-05T07:15:50.201Z,101.30
2022-11-05T07:16:50.191Z,122.80
2022-11-05T07:17:50.192Z,202.70
2022-11-05T07:18:50.164Z,211.30
2022-11-05T07:19:50.184Z,167.00
2022-11-05T07:20:50.137Z,106.80
2022-11-05T07:21:50.144Z,95.80
2022-11-05T07:22:50.129Z,74.90
2022-11-05T07:23:50.113Z,226.00
2022-11-05T07:24:50.133Z,239.50
2022-11-05T07:25:50.085Z,182.10
2022-11-05T07:26:50.071Z,189.60
2022-11-05T07:27:50.063Z,255.70
2022-11-05T07:28:50.052Z,172.50
2022-11-05T07:29:50.079Z,188.80
2022-11-05T07:30:50.025Z,146.20
2022-11-05T07:31:50.024Z,134.30
2022-11-05T07:32:50.011Z,79.10
2022-11-05T07:33:50.003Z,131.10
2022-11-05T07:34:50.027Z,224.20
2022-11-05T07:35:49.998Z,262.40
2022-11-05T07:36:49.962Z,95.10
2022-11-05T07:37:49.954Z,122.80
2022-11-05T07:38:49.932Z,116.50
2022-11-05T07:39:49.954Z,220.90
2022-11-05T07:40:49.948Z,206.80
2022-11-05T07:41:49.907Z,178.20
2022-11-05T07:42:49.889Z,125.40
2022-11-05T07:43:49.887Z,114.70
2022-11-05T07:44:49.878Z,125.90
2022-11-05T07:45:49.903Z,193.70
2022-11-05T07:46:49.852Z,271.20
2022-11-05T07:47:49.838Z,218.10
2022-11-05T07:48:49.828Z,248.30
2022-11-05T07:49:49.814Z,272.90
2022-11-05T07:50:49.838Z,335.90
2022-11-05T07:51:49.809Z,395.80
2022-11-05T07:52:49.763Z,499.80
2022-11-05T07:53:49.781Z,506.20
2022-11-05T07:54:49.760Z,223.10
2022-11-05T07:55:49.780Z,178.70
2022-11-05T07:56:49.737Z,423.20
2022-11-05T07:57:49.727Z,1999.90
2022-11-05T07:58:49.715Z,1999.90
2022-11-05T07:59:49.707Z,1999.90
2022-11-05T08:00:49.867Z,1999.90
2022-11-05T08:01:49.892Z,147.00
2022-11-05T08:02:49.905Z,299.90
2022-11-05T08:03:49.653Z,187.80
2022-11-05T08:04:49.644Z,303.20
2022-11-05T08:05:49.668Z,130.30
2022-11-05T08:06:49.612Z,268.80
2022-11-05T08:07:49.614Z,1033.00
2022-11-05T08:08:49.603Z,749.40
2022-11-05T08:09:49.594Z,116.80
2022-11-05T08:10:49.616Z,1083.00
2022-11-05T08:11:52.238Z,989.20
2022-11-05T08:12:49.555Z,977.90
2022-11-05T08:13:49.552Z,1999.90
2022-11-05T08:14:49.532Z,1999.90
2022-11-05T08:15:49.577Z,1999.90
2022-11-05T08:16:49.528Z,1999.90
2022-11-05T08:17:49.491Z,1999.90
2022-11-05T08:18:49.499Z,1999.90
2022-11-05T08:19:49.467Z,1999.90
2022-11-05T08:20:49.487Z,1999.90
2022-11-05T08:21:49.445Z,1999.90
2022-11-05T08:22:49.443Z,1999.90
2022-11-05T08:23:49.430Z,1999.90
2022-11-05T08:24:49.453Z,1999.90
2022-11-05T08:25:49.449Z,1999.90
2022-11-05T08:26:49.391Z,1999.90
2022-11-05T08:27:49.383Z,1999.90
2022-11-05T08:28:49.369Z,1999.90
2022-11-05T08:29:49.360Z,1999.90
2022-11-05T08:30:49.381Z,1999.90
2022-11-05T08:31:49.338Z,1999.90
2022-11-05T08:32:49.328Z,1999.90
2022-11-05T08:33:49.332Z,144.20
2022-11-05T08:34:49.308Z,399.00
2022-11-05T08:35:49.433Z,643.40
2022-11-05T08:36:49.279Z,680.70
2022-11-05T08:37:49.265Z,653.20
2022-11-05T08:38:49.267Z,679.60
2022-11-05T08:39:49.253Z,1057.80
2022-11-05T08:40:49.272Z,1999.90
2022-11-05T08:41:49.233Z,1999.90
2022-11-05T08:42:49.220Z,1999.90
2022-11-05T08:43:49.214Z,1999.90
2022-11-05T08:44:49.197Z,1999.90
2022-11-05T08:45:49.223Z,86.80
2022-11-05T08:46:49.172Z,609.30
2022-11-05T08:47:49.169Z,604.80
2022-11-05T08:48:49.155Z,708.30
2022-11-05T08:49:49.149Z,1999.90
2022-11-05T08:50:49.155Z,1999.90
2022-11-05T08:51:49.132Z,1999.90
2022-11-05T08:52:49.096Z,332.80
2022-11-05T08:53:49.095Z,1999.90
2022-11-05T08:54:49.094Z,1999.90
2022-11-05T08:55:49.102Z,1999.90
2022-11-05T08:56:49.055Z,1999.90
2022-11-05T08:57:49.048Z,1999.90
2022-11-05T08:58:49.024Z,1999.90
2022-11-05T08:59:49.012Z,1999.90
2022-11-05T09:00:49.082Z,332.40
2022-11-05T09:01:49.159Z,728.70
2022-11-05T09:02:49.018Z,639.40
2022-11-05T09:03:48.982Z,1999.90
2022-11-05T09:04:48.983Z,820.00
2022-11-05T09:05:48.957Z,1999.90
2022-11-05T09:06:48.980Z,1352.50
2022-11-05T09:07:48.933Z,1999.90
2022-11-05T09:08:48.920Z,1347.90
2022-11-05T09:09:48.906Z,723.90
2022-11-05T09:10:48.903Z,1892.10
2022-11-05T09:12:13.390Z,1879.20
2022-11-05T09:12:49.874Z,1999.90
2022-11-05T09:13:48.874Z,1123.90
2022-11-05T09:14:48.863Z,1999.90
2022-11-05T09:15:48.838Z,1999.90
2022-11-05T09:16:48.854Z,1999.90
2022-11-05T09:17:48.816Z,1999.90
2022-11-05T09:18:48.817Z,1999.90
2022-11-05T09:19:48.810Z,1999.90
2022-11-05T09:20:48.793Z,1999.90
2022-11-05T09:21:48.809Z,1999.90
2022-11-05T09:22:48.757Z,1999.90
2022-11-05T09:23:48.750Z,1999.90
2022-11-05T09:24:48.733Z,1999.90
2022-11-05T09:25:48.727Z,1999.90
2022-11-05T09:26:48.748Z,1999.90
2022-11-05T09:27:48.718Z,1999.90
2022-11-05T09:28:48.685Z,1999.90
2022-11-05T09:29:48.673Z,1999.90
2022-11-05T09:30:48.669Z,890.70
2022-11-05T09:31:48.687Z,1126.60
2022-11-05T09:32:48.643Z,963.60
2022-11-05T09:33:48.636Z,718.30
2022-11-05T09:34:48.628Z,1999.90
2022-11-05T09:35:48.613Z,1999.90
2022-11-05T09:36:48.631Z,1999.90
2022-11-05T09:37:48.586Z,1999.90
2022-11-05T09:38:48.572Z,1999.90
2022-11-05T09:39:48.556Z,1999.90
2022-11-05T09:40:48.551Z,1999.90
2022-11-05T09:41:48.565Z,1999.90
2022-11-05T09:42:48.525Z,1999.90
2022-11-05T09:43:48.507Z,1999.90
2022-11-05T09:44:48.504Z,1999.90
2022-11-05T09:45:48.494Z,1999.90
2022-11-05T09:46:48.518Z,1999.90
2022-11-05T09:47:48.497Z,1999.90
2022-11-05T09:48:48.463Z,1999.90
2022-11-05T09:49:48.451Z,1999.90
2022-11-05T09:50:48.453Z,1999.90
2022-11-05T09:51:48.463Z,1999.90
2022-11-05T09:52:48.425Z,1999.90
2022-11-05T09:53:48.414Z,1999.90
2022-11-05T09:54:48.397Z,1999.90
2022-11-05T09:55:48.384Z,1999.90
2022-11-05T09:56:48.394Z,1999.90
2022-11-05T09:57:48.393Z,1999.90
2022-11-05T09:58:48.366Z,1999.90
2022-11-05T09:59:48.347Z,1999.90
2022-11-05T10:00:48.383Z,1999.90
2022-11-05T10:01:48.513Z,1999.90
2022-11-05T10:02:48.350Z,1999.90
2022-11-05T10:03:48.297Z,1999.90
2022-11-05T10:04:48.289Z,1999.90
2022-11-05T10:05:48.315Z,1999.90
2022-11-05T10:06:48.277Z,1999.90
2022-11-05T10:07:48.285Z,1999.90
2022-11-05T10:08:48.238Z,1999.90
2022-11-05T10:09:48.223Z,1999.90
2022-11-05T10:10:48.217Z,1999.90
2022-11-05T10:11:48.205Z,1999.90
2022-11-05T10:12:48.230Z,1999.90
2022-11-05T10:13:48.182Z,1999.90
2022-11-05T10:14:48.178Z,1999.90
2022-11-05T10:15:48.281Z,1999.90
2022-11-05T10:16:48.160Z,1999.90
2022-11-05T10:17:48.167Z,1999.90
2022-11-05T10:18:48.126Z,1999.90
2022-11-05T10:19:48.101Z,1999.90
2022-11-05T10:20:48.111Z,1999.90
2022-11-05T10:22:49.838Z,1999.90
2022-11-05T10:23:48.075Z,1999.90
2022-11-05T10:24:48.068Z,1999.90
2022-11-05T10:25:48.050Z,1999.90
2022-11-05T10:26:48.044Z,1999.90
2022-11-05T10:27:48.059Z,1999.90
2022-11-05T10:28:48.038Z,1999.90
2022-11-05T10:29:48.004Z,1999.90
2022-11-05T10:30:47.996Z,1999.90
2022-11-05T10:31:47.984Z,1999.90
2022-11-05T10:32:48.038Z,1999.90
2022-11-05T10:33:47.957Z,1999.90
2022-11-05T10:34:47.948Z,1999.90
2022-11-05T10:35:47.938Z,632.30
2022-11-05T10:36:47.929Z,1999.90
2022-11-05T10:37:47.949Z,1999.90
2022-11-05T10:38:47.909Z,1201.10
2022-11-05T10:39:47.893Z,174.70
2022-11-05T10:40:47.874Z,15.00
2022-11-05T10:41:47.873Z,16.90
2022-11-05T10:42:47.890Z,17.90
2022-11-05T10:43:47.849Z,20.90
2022-11-05T10:44:47.843Z,17.70
2022-11-05T10:45:47.828Z,15.60
2022-11-05T10:46:47.816Z,16.10
2022-11-05T10:47:47.834Z,10.60
2022-11-05T10:48:47.788Z,11.90
2022-11-05T10:49:47.780Z,10.40
2022-11-05T10:50:47.773Z,9.40
2022-11-05T10:51:47.762Z,10.20
2022-11-05T10:52:47.755Z,11.00
2022-11-05T10:53:47.775Z,10.30
2022-11-05T10:54:47.723Z,10.10
2022-11-05T10:55:47.706Z,9.50
2022-11-05T10:56:47.693Z,8.90
2022-11-05T10:57:47.682Z,9.10
2022-11-05T10:58:47.715Z,8.90
2022-11-05T10:59:47.656Z,9.80
2022-11-05T11:00:47.726Z,9.40
2022-11-05T11:01:47.793Z,10.30
2022-11-05T11:02:47.655Z,10.10
2022-11-05T11:03:47.678Z,10.30
2022-11-05T11:04:47.622Z,10.20
2022-11-05T11:05:47.593Z,8.90
2022-11-05T11:06:47.610Z,8.80
2022-11-05T11:07:47.587Z,9.90
2022-11-05T11:08:47.622Z,10.20
2022-11-05T11:10:58.865Z,151.60
2022-11-05T11:11:58.828Z,142.50
2022-11-05T11:12:58.792Z,15.80
2022-11-05T11:13:58.840Z,41.00
2022-11-05T11:14:58.785Z,9.80
2022-11-05T11:15:58.768Z,9.40
2022-11-05T11:16:58.759Z,11.20
2022-11-05T11:17:58.770Z,10.90
2022-11-05T11:18:58.816Z,11.50
2022-11-05T11:19:58.743Z,12.70
2022-11-05T11:20:58.720Z,14.40
2022-11-05T11:21:58.703Z,13.70
2022-11-05T11:22:58.709Z,13.20
2022-11-05T11:23:58.733Z,13.40
2022-11-05T11:24:58.687Z,15.20
2022-11-05T11:25:58.669Z,21.90
2022-11-05T11:26:58.652Z,78.10
2022-11-05T11:27:58.668Z,1142.90
2022-11-05T11:28:58.670Z,1212.70
2022-11-05T11:29:58.624Z,1999.90
2022-11-05T11:30:58.617Z,1999.90
2022-11-05T11:31:58.618Z,1999.90
2022-11-05T11:32:58.604Z,1999.90
2022-11-05T11:33:58.617Z,1999.90
2022-11-05T11:34:58.583Z,476.80
2022-11-05T11:35:58.557Z,51.80
2022-11-05T11:36:58.542Z,43.90
2022-11-05T11:37:58.514Z,50.40
2022-11-05T11:38:58.538Z,251.40
2022-11-05T11:39:58.494Z,1999.90
2022-11-05T11:40:58.482Z,1999.90
2022-11-05T11:41:58.488Z,1999.90
2022-11-05T11:42:58.497Z,1999.90
2022-11-05T11:43:58.539Z,1999.90
2022-11-05T11:44:58.453Z,1999.90
2022-11-05T11:46:04.660Z,1999.90
2022-11-05T11:46:59.431Z,491.70
2022-11-05T11:47:58.420Z,61.30
2022-11-05T11:48:58.407Z,94.20
2022-11-05T11:49:58.455Z,14.20
2022-11-05T11:50:58.391Z,11.20
2022-11-05T11:51:58.370Z,13.00
2022-11-05T11:52:58.361Z,11.90
2022-11-05T11:53:58.351Z,10.90
2022-11-05T11:54:58.375Z,9.70
2022-11-05T11:55:58.332Z,9.30
2022-11-05T11:56:58.309Z,9.60
2022-11-05T11:57:58.301Z,9.50
2022-11-05T11:58:58.282Z,9.60
2022-11-05T12:00:13.683Z,9.10
2022-11-05T12:00:59.256Z,10.00
2022-11-05T12:01:58.400Z,10.90
2022-11-05T12:03:01.910Z,10.20
2022-11-05T12:03:58.249Z,9.50
2022-11-05T12:04:58.281Z,9.70
2022-11-05T12:05:58.199Z,9.50
2022-11-05T12:06:58.216Z,10.70
2022-11-05T12:07:58.215Z,10.10
2022-11-05T12:09:03.572Z,9.80
2022-11-05T12:09:59.198Z,8.50
2022-11-05T12:10:58.176Z,8.00
2022-11-05T12:11:58.152Z,7.90
2022-11-05T12:12:58.161Z,7.90
2022-11-05T12:13:58.130Z,9.00
2022-11-05T12:14:58.169Z,9.60
2022-11-05T12:15:58.092Z,10.50
2022-11-05T12:16:58.081Z,9.10
2022-11-05T12:17:58.058Z,9.20
2022-11-05T12:18:58.065Z,8.60
2022-11-05T12:19:58.054Z,8.50
2022-11-05T12:20:58.598Z,8.80
2022-11-05T12:21:58.028Z,8.10
2022-11-05T12:22:58.032Z,8.50
2022-11-05T12:23:58.004Z,8.20
2022-11-05T12:24:58.013Z,8.60
2022-11-05T12:25:58.023Z,8.70
2022-11-05T12:26:57.990Z,8.30
2022-11-05T12:27:57.965Z,8.60
2022-11-05T12:29:17.826Z,8.70
2022-11-05T12:29:58.971Z,8.70
2022-11-05T12:30:57.950Z,8.80